sensor_id;sensor_type;location;lat;lon;timestamp;temperature;humidity
4813;DHT22;2420;51.202;8.698;2024-03-22T00:01:47;8.20;1.00
4813;DHT22;2420;51.202;8.698;2024-03-22T00:04:13;8.20;1.00
4813;DHT22;2420;51.202;8.698;2024-03-22T00:06:40;8.30;1.00
4813;DHT22;2420;51.202;8.698;2024-03-22T00:09:06;8.30;1.00
4813;DHT22;2420;51.202;8.698;2024-03-22T00:11:32;8.30;1.00
4813;DHT22;2420;51.202;8.698;2024-03-22T00:13:57;8.40;1.00
4813;DHT22;2420;51.202;8.698;2024-03-22T00:16:23;8.40;1.00
4813;DHT22;2420;51.202;8.698;2024-03-22T00:18:49;8.40;1.00
4813;DHT22;2420;51.202;8.698;2024-03-22T00:21:14;8.40;1.00
4813;DHT22;2420;51.202;8.698;2024-03-22T00:23:40;8.40;1.00
4813;DHT22;2420;51.202;8.698;2024-03-22T00:26:07;8.50;1.00
4813;DHT22;2420;51.202;8.698;2024-03-22T00:28:32;8.50;1.00
4813;DHT22;2420;51.202;8.698;2024-03-22T00:30:58;8.60;1.00
4813;DHT22;2420;51.202;8.698;2024-03-22T00:33:24;8.60;1.00
4813;DHT22;2420;51.202;8.698;2024-03-22T00:35:50;8.60;1.00
4813;DHT22;2420;51.202;8.698;2024-03-22T00:38:15;8.60;1.00
4813;DHT22;2420;51.202;8.698;2024-03-22T00:40:41;8.60;1.00
4813;DHT22;2420;51.202;8.698;2024-03-22T00:43:06;8.60;1.00
4813;DHT22;2420;51.202;8.698;2024-03-22T00:45:32;8.60;1.00
4813;DHT22;2420;51.202;8.698;2024-03-22T00:47:58;8.50;1.00
4813;DHT22;2420;51.202;8.698;2024-03-22T00:50:23;8.60;1.00
4813;DHT22;2420;51.202;8.698;2024-03-22T00:52:50;8.60;1.00
4813;DHT22;2420;51.202;8.698;2024-03-22T00:55:16;8.60;1.00
4813;DHT22;2420;51.202;8.698;2024-03-22T00:57:41;8.50;1.00
4813;DHT22;2420;51.202;8.698;2024-03-22T01:00:07;8.60;1.00
4813;DHT22;2420;51.202;8.698;2024-03-22T01:02:33;8.60;1.00
4813;DHT22;2420;51.202;8.698;2024-03-22T01:04:58;8.50;1.00
4813;DHT22;2420;51.202;8.698;2024-03-22T01:07:24;8.60;1.00
4813;DHT22;2420;51.202;8.698;2024-03-22T01:09:50;8.60;1.00
4813;DHT22;2420;51.202;8.698;2024-03-22T01:12:15;8.50;1.00
4813;DHT22;2420;51.202;8.698;2024-03-22T01:14:41;8.50;1.00
4813;DHT22;2420;51.202;8.698;2024-03-22T01:17:06;8.50;1.00
4813;DHT22;2420;51.202;8.698;2024-03-22T01:19:32;8.50;1.00
4813;DHT22;2420;51.202;8.698;2024-03-22T01:21:58;8.50;1.00
4813;DHT22;2420;51.202;8.698;2024-03-22T01:24:23;8.50;1.00
4813;DHT22;2420;51.202;8.698;2024-03-22T01:26:49;8.50;1.00
4813;DHT22;2420;51.202;8.698;2024-03-22T01:29:14;8.50;1.00
4813;DHT22;2420;51.202;8.698;2024-03-22T01:31:40;8.50;1.00
4813;DHT22;2420;51.202;8.698;2024-03-22T01:34:05;8.50;1.00
4813;DHT22;2420;51.202;8.698;2024-03-22T01:36:31;8.50;1.00
4813;DHT22;2420;51.202;8.698;2024-03-22T01:38:57;8.50;1.00
4813;DHT22;2420;51.202;8.698;2024-03-22T01:41:22;8.50;1.00
4813;DHT22;2420;51.202;8.698;2024-03-22T01:43:48;8.50;1.00
4813;DHT22;2420;51.202;8.698;2024-03-22T01:46:14;8.50;1.00
4813;DHT22;2420;51.202;8.698;2024-03-22T01:48:40;8.50;1.00
4813;DHT22;2420;51.202;8.698;2024-03-22T01:51:05;8.50;1.00
4813;DHT22;2420;51.202;8.698;2024-03-22T01:53:32;8.50;1.00
4813;DHT22;2420;51.202;8.698;2024-03-22T01:55:58;8.50;1.00
4813;DHT22;2420;51.202;8.698;2024-03-22T01:58:23;8.50;1.00
4813;DHT22;2420;51.202;8.698;2024-03-22T02:00:49;8.40;1.00
4813;DHT22;2420;51.202;8.698;2024-03-22T02:03:15;8.40;1.00
4813;DHT22;2420;51.202;8.698;2024-03-22T02:05:40;8.40;1.00
4813;DHT22;2420;51.202;8.698;2024-03-22T02:08:06;8.40;1.00
4813;DHT22;2420;51.202;8.698;2024-03-22T02:10:32;8.30;1.00
4813;DHT22;2420;51.202;8.698;2024-03-22T02:12:57;8.20;1.00
4813;DHT22;2420;51.202;8.698;2024-03-22T02:15:23;8.20;1.00
4813;DHT22;2420;51.202;8.698;2024-03-22T02:17:49;8.00;1.00
4813;DHT22;2420;51.202;8.698;2024-03-22T02:20:14;8.00;1.00
4813;DHT22;2420;51.202;8.698;2024-03-22T02:22:40;8.00;1.00
4813;DHT22;2420;51.202;8.698;2024-03-22T02:25:06;7.80;1.00
4813;DHT22;2420;51.202;8.698;2024-03-22T02:27:33;7.90;1.00
4813;DHT22;2420;51.202;8.698;2024-03-22T02:29:59;7.90;1.00
4813;DHT22;2420;51.202;8.698;2024-03-22T02:32:24;7.80;1.00
4813;DHT22;2420;51.202;8.698;2024-03-22T02:34:50;7.70;1.00
4813;DHT22;2420;51.202;8.698;2024-03-22T02:37:15;7.70;1.00
4813;DHT22;2420;51.202;8.698;2024-03-22T02:39:41;7.70;1.00
4813;DHT22;2420;51.202;8.698;2024-03-22T02:42:07;7.80;1.00
4813;DHT22;2420;51.202;8.698;2024-03-22T02:44:32;7.80;1.00
4813;DHT22;2420;51.202;8.698;2024-03-22T02:46:58;7.80;1.00
4813;DHT22;2420;51.202;8.698;2024-03-22T02:49:25;7.90;1.00
4813;DHT22;2420;51.202;8.698;2024-03-22T02:51:51;7.90;1.00
4813;DHT22;2420;51.202;8.698;2024-03-22T02:54:16;8.00;1.00
4813;DHT22;2420;51.202;8.698;2024-03-22T02:56:42;8.10;1.00
4813;DHT22;2420;51.202;8.698;2024-03-22T02:59:07;8.20;1.00
4813;DHT22;2420;51.202;8.698;2024-03-22T03:01:33;8.30;1.00
4813;DHT22;2420;51.202;8.698;2024-03-22T03:03:58;8.40;1.00
4813;DHT22;2420;51.202;8.698;2024-03-22T03:06:24;8.40;1.00
4813;DHT22;2420;51.202;8.698;2024-03-22T03:08:50;8.40;1.00
4813;DHT22;2420;51.202;8.698;2024-03-22T03:11:15;8.50;1.00
4813;DHT22;2420;51.202;8.698;2024-03-22T03:13:41;8.50;1.00
4813;DHT22;2420;51.202;8.698;2024-03-22T03:16:07;8.50;1.00
4813;DHT22;2420;51.202;8.698;2024-03-22T03:18:32;8.50;1.00
4813;DHT22;2420;51.202;8.698;2024-03-22T03:20:58;8.60;1.00
4813;DHT22;2420;51.202;8.698;2024-03-22T03:23:23;8.60;1.00
4813;DHT22;2420;51.202;8.698;2024-03-22T03:25:49;8.60;1.00
4813;DHT22;2420;51.202;8.698;2024-03-22T03:28:14;8.60;1.00
4813;DHT22;2420;51.202;8.698;2024-03-22T03:30:40;8.70;1.00
4813;DHT22;2420;51.202;8.698;2024-03-22T03:33:05;8.70;1.00
4813;DHT22;2420;51.202;8.698;2024-03-22T03:35:31;8.70;1.00
4813;DHT22;2420;51.202;8.698;2024-03-22T03:37:57;8.70;1.00
4813;DHT22;2420;51.202;8.698;2024-03-22T03:40:22;8.60;1.00
4813;DHT22;2420;51.202;8.698;2024-03-22T03:42:50;8.80;1.00
4813;DHT22;2420;51.202;8.698;2024-03-22T03:45:16;8.70;1.00
4813;DHT22;2420;51.202;8.698;2024-03-22T03:47:41;8.80;1.00
4813;DHT22;2420;51.202;8.698;2024-03-22T03:50:07;8.70;1.00
4813;DHT22;2420;51.202;8.698;2024-03-22T03:52:33;8.70;1.00
4813;DHT22;2420;51.202;8.698;2024-03-22T03:54:59;8.70;1.00
4813;DHT22;2420;51.202;8.698;2024-03-22T03:57:24;8.70;1.00
4813;DHT22;2420;51.202;8.698;2024-03-22T03:59:50;8.70;1.00
4813;DHT22;2420;51.202;8.698;2024-03-22T04:02:15;8.70;1.00
4813;DHT22;2420;51.202;8.698;2024-03-22T04:04:41;8.70;1.00
4813;DHT22;2420;51.202;8.698;2024-03-22T04:07:06;8.70;1.00
4813;DHT22;2420;51.202;8.698;2024-03-22T04:09:32;8.70;1.00
4813;DHT22;2420;51.202;8.698;2024-03-22T04:11:58;8.70;1.00
4813;DHT22;2420;51.202;8.698;2024-03-22T04:14:25;8.70;1.00
4813;DHT22;2420;51.202;8.698;2024-03-22T04:16:50;8.70;1.00
4813;DHT22;2420;51.202;8.698;2024-03-22T04:19:16;8.60;1.00
4813;DHT22;2420;51.202;8.698;2024-03-22T04:21:41;8.60;1.00
4813;DHT22;2420;51.202;8.698;2024-03-22T04:24:07;8.60;1.00
4813;DHT22;2420;51.202;8.698;2024-03-22T04:26:32;8.60;1.00
4813;DHT22;2420;51.202;8.698;2024-03-22T04:28:58;8.60;1.00
4813;DHT22;2420;51.202;8.698;2024-03-22T04:31:23;8.60;1.00
4813;DHT22;2420;51.202;8.698;2024-03-22T04:33:49;8.60;1.00
4813;DHT22;2420;51.202;8.698;2024-03-22T04:36:15;8.60;1.00
4813;DHT22;2420;51.202;8.698;2024-03-22T04:38:41;8.60;1.00
4813;DHT22;2420;51.202;8.698;2024-03-22T04:41:06;8.60;1.00
4813;DHT22;2420;51.202;8.698;2024-03-22T04:43:32;8.60;1.00
4813;DHT22;2420;51.202;8.698;2024-03-22T04:45:57;8.50;1.00
4813;DHT22;2420;51.202;8.698;2024-03-22T04:48:23;8.60;1.00
4813;DHT22;2420;51.202;8.698;2024-03-22T04:50:50;8.60;1.00
4813;DHT22;2420;51.202;8.698;2024-03-22T04:53:20;8.60;1.00
4813;DHT22;2420;51.202;8.698;2024-03-22T04:55:49;8.60;1.00
4813;DHT22;2420;51.202;8.698;2024-03-22T05:00:42;8.70;1.00
4813;DHT22;2420;51.202;8.698;2024-03-22T05:03:08;8.60;1.00
4813;DHT22;2420;51.202;8.698;2024-03-22T05:05:34;8.70;1.00
4813;DHT22;2420;51.202;8.698;2024-03-22T05:08:00;8.60;1.00
4813;DHT22;2420;51.202;8.698;2024-03-22T05:10:26;8.40;1.00
4813;DHT22;2420;51.202;8.698;2024-03-22T05:12:52;8.40;1.00
4813;DHT22;2420;51.202;8.698;2024-03-22T05:15:18;8.40;1.00
4813;DHT22;2420;51.202;8.698;2024-03-22T05:17:43;8.30;1.00
4813;DHT22;2420;51.202;8.698;2024-03-22T05:20:09;8.30;1.00
4813;DHT22;2420;51.202;8.698;2024-03-22T05:22:39;8.30;1.00
4813;DHT22;2420;51.202;8.698;2024-03-22T05:25:05;8.30;1.00
4813;DHT22;2420;51.202;8.698;2024-03-22T05:27:31;8.30;1.00
4813;DHT22;2420;51.202;8.698;2024-03-22T05:29:58;8.30;1.00
4813;DHT22;2420;51.202;8.698;2024-03-22T05:32:24;8.30;1.00
4813;DHT22;2420;51.202;8.698;2024-03-22T05:34:50;8.30;1.00
4813;DHT22;2420;51.202;8.698;2024-03-22T05:37:16;8.50;1.00
4813;DHT22;2420;51.202;8.698;2024-03-22T05:39:42;8.60;1.00
4813;DHT22;2420;51.202;8.698;2024-03-22T05:42:08;8.60;1.00
4813;DHT22;2420;51.202;8.698;2024-03-22T05:44:33;8.70;1.00
4813;DHT22;2420;51.202;8.698;2024-03-22T05:46:59;8.70;1.00
4813;DHT22;2420;51.202;8.698;2024-03-22T05:49:24;8.60;1.00
4813;DHT22;2420;51.202;8.698;2024-03-22T05:51:50;8.60;1.00
4813;DHT22;2420;51.202;8.698;2024-03-22T05:54:16;8.50;1.00
4813;DHT22;2420;51.202;8.698;2024-03-22T05:56:41;8.40;1.00
4813;DHT22;2420;51.202;8.698;2024-03-22T05:59:07;8.40;1.00
4813;DHT22;2420;51.202;8.698;2024-03-22T06:01:32;8.40;1.00
4813;DHT22;2420;51.202;8.698;2024-03-22T06:03:58;8.40;1.00
4813;DHT22;2420;51.202;8.698;2024-03-22T06:06:24;8.40;1.00
4813;DHT22;2420;51.202;8.698;2024-03-22T06:08:52;8.50;1.00
4813;DHT22;2420;51.202;8.698;2024-03-22T06:11:22;8.50;1.00
4813;DHT22;2420;51.202;8.698;2024-03-22T06:13:48;8.60;1.00
4813;DHT22;2420;51.202;8.698;2024-03-22T06:16:13;8.70;1.00
4813;DHT22;2420;51.202;8.698;2024-03-22T06:18:39;8.70;1.00
4813;DHT22;2420;51.202;8.698;2024-03-22T06:21:05;8.70;1.00
4813;DHT22;2420;51.202;8.698;2024-03-22T06:23:32;8.80;1.00
4813;DHT22;2420;51.202;8.698;2024-03-22T06:25:57;8.70;1.00
4813;DHT22;2420;51.202;8.698;2024-03-22T06:28:23;8.70;1.00
4813;DHT22;2420;51.202;8.698;2024-03-22T06:30:49;8.80;1.00
4813;DHT22;2420;51.202;8.698;2024-03-22T06:33:15;8.80;1.00
4813;DHT22;2420;51.202;8.698;2024-03-22T06:35:41;8.80;1.00
4813;DHT22;2420;51.202;8.698;2024-03-22T06:38:06;8.90;1.00
4813;DHT22;2420;51.202;8.698;2024-03-22T06:40:32;8.90;1.00
4813;DHT22;2420;51.202;8.698;2024-03-22T06:42:58;9.00;1.00
4813;DHT22;2420;51.202;8.698;2024-03-22T06:45:23;9.00;1.00
4813;DHT22;2420;51.202;8.698;2024-03-22T06:47:49;9.00;1.00
4813;DHT22;2420;51.202;8.698;2024-03-22T06:50:15;9.10;1.00
4813;DHT22;2420;51.202;8.698;2024-03-22T06:52:43;9.20;1.00
4813;DHT22;2420;51.202;8.698;2024-03-22T06:55:08;9.20;1.00
4813;DHT22;2420;51.202;8.698;2024-03-22T06:57:34;9.20;1.00
4813;DHT22;2420;51.202;8.698;2024-03-22T06:59:59;9.30;1.00
4813;DHT22;2420;51.202;8.698;2024-03-22T07:02:25;9.30;1.00
4813;DHT22;2420;51.202;8.698;2024-03-22T07:04:51;9.40;1.00
4813;DHT22;2420;51.202;8.698;2024-03-22T07:07:18;9.40;1.00
4813;DHT22;2420;51.202;8.698;2024-03-22T07:09:43;9.50;1.00
4813;DHT22;2420;51.202;8.698;2024-03-22T07:12:09;9.50;1.00
4813;DHT22;2420;51.202;8.698;2024-03-22T07:14:35;9.60;1.00
4813;DHT22;2420;51.202;8.698;2024-03-22T07:17:00;9.80;1.00
4813;DHT22;2420;51.202;8.698;2024-03-22T07:19:26;10.00;1.00
4813;DHT22;2420;51.202;8.698;2024-03-22T07:21:53;10.10;1.00
4813;DHT22;2420;51.202;8.698;2024-03-22T07:24:19;10.20;1.00
4813;DHT22;2420;51.202;8.698;2024-03-22T07:26:45;10.20;1.00
4813;DHT22;2420;51.202;8.698;2024-03-22T07:29:11;10.40;1.00
4813;DHT22;2420;51.202;8.698;2024-03-22T07:31:37;10.40;1.00
4813;DHT22;2420;51.202;8.698;2024-03-22T07:34:03;10.50;1.00
4813;DHT22;2420;51.202;8.698;2024-03-22T07:36:30;10.50;1.00
4813;DHT22;2420;51.202;8.698;2024-03-22T07:38:56;10.50;1.00
4813;DHT22;2420;51.202;8.698;2024-03-22T07:41:23;10.60;1.00
4813;DHT22;2420;51.202;8.698;2024-03-22T07:43:49;10.60;1.00
4813;DHT22;2420;51.202;8.698;2024-03-22T07:46:14;10.60;1.00
4813;DHT22;2420;51.202;8.698;2024-03-22T07:48:40;10.70;1.00
4813;DHT22;2420;51.202;8.698;2024-03-22T07:51:05;10.80;1.00
4813;DHT22;2420;51.202;8.698;2024-03-22T07:53:31;10.80;1.00
4813;DHT22;2420;51.202;8.698;2024-03-22T07:55:56;10.80;1.00
4813;DHT22;2420;51.202;8.698;2024-03-22T07:58:22;10.90;1.00
4813;DHT22;2420;51.202;8.698;2024-03-22T08:00:47;10.90;1.00
4813;DHT22;2420;51.202;8.698;2024-03-22T08:03:16;11.10;1.00
4813;DHT22;2420;51.202;8.698;2024-03-22T08:05:42;11.20;1.00
4813;DHT22;2420;51.202;8.698;2024-03-22T08:08:08;11.40;1.00
4813;DHT22;2420;51.202;8.698;2024-03-22T08:10:34;11.60;1.00
4813;DHT22;2420;51.202;8.698;2024-03-22T08:13:00;11.70;1.00
4813;DHT22;2420;51.202;8.698;2024-03-22T08:15:26;11.80;1.00
4813;DHT22;2420;51.202;8.698;2024-03-22T08:17:51;11.90;1.00
4813;DHT22;2420;51.202;8.698;2024-03-22T08:20:17;12.00;1.00
4813;DHT22;2420;51.202;8.698;2024-03-22T08:22:43;11.90;1.00
4813;DHT22;2420;51.202;8.698;2024-03-22T08:25:08;11.90;1.00
4813;DHT22;2420;51.202;8.698;2024-03-22T08:27:34;11.90;1.00
4813;DHT22;2420;51.202;8.698;2024-03-22T08:30:00;11.90;1.00
4813;DHT22;2420;51.202;8.698;2024-03-22T08:32:26;12.00;1.00
4813;DHT22;2420;51.202;8.698;2024-03-22T08:34:51;12.00;1.00
4813;DHT22;2420;51.202;8.698;2024-03-22T08:37:17;12.10;1.00
4813;DHT22;2420;51.202;8.698;2024-03-22T08:39:43;12.10;1.00
4813;DHT22;2420;51.202;8.698;2024-03-22T08:42:08;12.10;1.00
4813;DHT22;2420;51.202;8.698;2024-03-22T08:44:35;12.10;1.00
4813;DHT22;2420;51.202;8.698;2024-03-22T08:47:00;12.10;1.00
4813;DHT22;2420;51.202;8.698;2024-03-22T08:49:26;12.00;1.00
4813;DHT22;2420;51.202;8.698;2024-03-22T08:51:51;12.00;1.00
4813;DHT22;2420;51.202;8.698;2024-03-22T08:54:17;11.90;1.00
4813;DHT22;2420;51.202;8.698;2024-03-22T08:56:42;11.90;1.00
4813;DHT22;2420;51.202;8.698;2024-03-22T08:59:08;11.90;1.00
4813;DHT22;2420;51.202;8.698;2024-03-22T09:01:33;11.90;1.00
4813;DHT22;2420;51.202;8.698;2024-03-22T09:04:00;11.90;1.00
4813;DHT22;2420;51.202;8.698;2024-03-22T09:06:26;11.90;1.00
4813;DHT22;2420;51.202;8.698;2024-03-22T09:08:51;11.80;1.00
4813;DHT22;2420;51.202;8.698;2024-03-22T09:11:17;11.80;1.00
4813;DHT22;2420;51.202;8.698;2024-03-22T09:13:43;11.80;1.00
4813;DHT22;2420;51.202;8.698;2024-03-22T09:16:15;11.80;1.00
4813;DHT22;2420;51.202;8.698;2024-03-22T09:18:40;11.90;1.00
4813;DHT22;2420;51.202;8.698;2024-03-22T09:21:06;11.90;1.00
4813;DHT22;2420;51.202;8.698;2024-03-22T09:23:34;11.90;1.00
4813;DHT22;2420;51.202;8.698;2024-03-22T09:25:59;12.00;1.00
4813;DHT22;2420;51.202;8.698;2024-03-22T09:28:25;12.20;1.00
4813;DHT22;2420;51.202;8.698;2024-03-22T09:30:51;12.30;1.00
4813;DHT22;2420;51.202;8.698;2024-03-22T09:33:17;12.40;1.00
4813;DHT22;2420;51.202;8.698;2024-03-22T09:35:43;12.60;1.00
4813;DHT22;2420;51.202;8.698;2024-03-22T09:38:09;12.70;1.00
4813;DHT22;2420;51.202;8.698;2024-03-22T09:40:37;12.80;1.00
4813;DHT22;2420;51.202;8.698;2024-03-22T09:43:05;12.80;1.00
4813;DHT22;2420;51.202;8.698;2024-03-22T09:45:32;12.80;1.00
4813;DHT22;2420;51.202;8.698;2024-03-22T09:47:58;12.80;1.00
4813;DHT22;2420;51.202;8.698;2024-03-22T09:50:24;12.80;1.00
4813;DHT22;2420;51.202;8.698;2024-03-22T09:52:52;12.80;1.00
4813;DHT22;2420;51.202;8.698;2024-03-22T09:55:24;12.70;1.00
4813;DHT22;2420;51.202;8.698;2024-03-22T09:57:50;12.60;1.00
4813;DHT22;2420;51.202;8.698;2024-03-22T10:00:18;12.60;1.00
4813;DHT22;2420;51.202;8.698;2024-03-22T10:02:45;12.70;1.00
4813;DHT22;2420;51.202;8.698;2024-03-22T10:05:11;12.70;1.00
4813;DHT22;2420;51.202;8.698;2024-03-22T10:07:36;12.70;1.00
4813;DHT22;2420;51.202;8.698;2024-03-22T10:10:03;12.70;1.00
4813;DHT22;2420;51.202;8.698;2024-03-22T10:12:29;12.80;1.00
4813;DHT22;2420;51.202;8.698;2024-03-22T10:14:54;12.90;1.00
4813;DHT22;2420;51.202;8.698;2024-03-22T10:17:20;12.90;1.00
4813;DHT22;2420;51.202;8.698;2024-03-22T10:19:48;13.10;1.00
4813;DHT22;2420;51.202;8.698;2024-03-22T10:22:16;13.10;1.00
4813;DHT22;2420;51.202;8.698;2024-03-22T10:24:44;13.20;1.00
4813;DHT22;2420;51.202;8.698;2024-03-22T10:27:10;13.20;1.00
4813;DHT22;2420;51.202;8.698;2024-03-22T10:29:36;13.20;1.00
4813;DHT22;2420;51.202;8.698;2024-03-22T10:32:02;13.20;1.00
4813;DHT22;2420;51.202;8.698;2024-03-22T10:34:28;13.20;1.00
4813;DHT22;2420;51.202;8.698;2024-03-22T10:37:00;13.30;1.00
4813;DHT22;2420;51.202;8.698;2024-03-22T10:39:26;13.40;1.00
4813;DHT22;2420;51.202;8.698;2024-03-22T10:41:52;13.40;1.00
4813;DHT22;2420;51.202;8.698;2024-03-22T10:44:17;13.60;1.00
4813;DHT22;2420;51.202;8.698;2024-03-22T10:46:47;13.60;1.00
4813;DHT22;2420;51.202;8.698;2024-03-22T10:49:18;13.60;1.00
4813;DHT22;2420;51.202;8.698;2024-03-22T10:51:51;13.70;1.00
4813;DHT22;2420;51.202;8.698;2024-03-22T10:54:20;13.90;1.00
4813;DHT22;2420;51.202;8.698;2024-03-22T10:56:47;13.80;1.00
4813;DHT22;2420;51.202;8.698;2024-03-22T10:59:22;13.90;1.00
4813;DHT22;2420;51.202;8.698;2024-03-22T11:01:49;13.90;1.00
4813;DHT22;2420;51.202;8.698;2024-03-22T11:04:19;14.00;1.00
4813;DHT22;2420;51.202;8.698;2024-03-22T11:06:48;14.10;1.00
4813;DHT22;2420;51.202;8.698;2024-03-22T11:09:25;14.20;1.00
4813;DHT22;2420;51.202;8.698;2024-03-22T11:11:55;14.20;1.00
4813;DHT22;2420;51.202;8.698;2024-03-22T11:14:25;14.40;1.00
4813;DHT22;2420;51.202;8.698;2024-03-22T11:16:51;14.40;1.00
4813;DHT22;2420;51.202;8.698;2024-03-22T11:19:18;14.50;1.00
4813;DHT22;2420;51.202;8.698;2024-03-22T11:21:43;14.60;1.00
4813;DHT22;2420;51.202;8.698;2024-03-22T11:24:09;14.60;1.00
4813;DHT22;2420;51.202;8.698;2024-03-22T11:26:36;14.50;1.00
4813;DHT22;2420;51.202;8.698;2024-03-22T11:29:01;14.50;1.00
4813;DHT22;2420;51.202;8.698;2024-03-22T11:31:27;14.40;1.00
4813;DHT22;2420;51.202;8.698;2024-03-22T11:33:56;14.40;1.00
4813;DHT22;2420;51.202;8.698;2024-03-22T11:36:22;14.40;1.00
4813;DHT22;2420;51.202;8.698;2024-03-22T11:38:48;14.40;1.00
4813;DHT22;2420;51.202;8.698;2024-03-22T11:41:30;14.40;1.00
4813;DHT22;2420;51.202;8.698;2024-03-22T11:43:57;14.50;1.00
4813;DHT22;2420;51.202;8.698;2024-03-22T11:46:24;14.50;1.00
4813;DHT22;2420;51.202;8.698;2024-03-22T11:48:51;14.50;1.00
4813;DHT22;2420;51.202;8.698;2024-03-22T11:51:17;14.30;1.00
4813;DHT22;2420;51.202;8.698;2024-03-22T11:53:49;14.20;1.00
4813;DHT22;2420;51.202;8.698;2024-03-22T11:56:18;14.30;1.00
4813;DHT22;2420;51.202;8.698;2024-03-22T11:58:46;14.20;1.00
4813;DHT22;2420;51.202;8.698;2024-03-22T12:01:13;14.20;1.00
4813;DHT22;2420;51.202;8.698;2024-03-22T12:03:38;14.30;1.00
4813;DHT22;2420;51.202;8.698;2024-03-22T12:06:06;14.30;1.00
4813;DHT22;2420;51.202;8.698;2024-03-22T12:08:31;14.40;1.00
4813;DHT22;2420;51.202;8.698;2024-03-22T12:10:57;14.50;1.00
4813;DHT22;2420;51.202;8.698;2024-03-22T12:13:25;14.50;1.00
4813;DHT22;2420;51.202;8.698;2024-03-22T12:15:50;14.60;1.00
4813;DHT22;2420;51.202;8.698;2024-03-22T12:18:16;14.60;1.00
4813;DHT22;2420;51.202;8.698;2024-03-22T12:20:41;14.50;1.00
4813;DHT22;2420;51.202;8.698;2024-03-22T12:23:07;14.40;1.00
4813;DHT22;2420;51.202;8.698;2024-03-22T12:25:33;14.40;1.00
4813;DHT22;2420;51.202;8.698;2024-03-22T12:27:58;14.30;1.00
4813;DHT22;2420;51.202;8.698;2024-03-22T12:30:24;14.40;1.00
4813;DHT22;2420;51.202;8.698;2024-03-22T12:32:51;14.30;1.00
4813;DHT22;2420;51.202;8.698;2024-03-22T12:35:17;14.30;1.00
4813;DHT22;2420;51.202;8.698;2024-03-22T12:37:42;14.30;1.00
4813;DHT22;2420;51.202;8.698;2024-03-22T12:40:08;14.40;1.00
4813;DHT22;2420;51.202;8.698;2024-03-22T12:42:35;14.50;1.00
4813;DHT22;2420;51.202;8.698;2024-03-22T12:45:00;14.40;1.00
4813;DHT22;2420;51.202;8.698;2024-03-22T12:47:26;14.30;1.00
4813;DHT22;2420;51.202;8.698;2024-03-22T12:49:51;14.30;1.00
4813;DHT22;2420;51.202;8.698;2024-03-22T12:52:17;14.40;1.00
4813;DHT22;2420;51.202;8.698;2024-03-22T12:54:42;14.40;1.00
4813;DHT22;2420;51.202;8.698;2024-03-22T12:57:08;14.30;1.00
4813;DHT22;2420;51.202;8.698;2024-03-22T12:59:33;14.30;1.00
4813;DHT22;2420;51.202;8.698;2024-03-22T13:01:59;14.20;1.00
4813;DHT22;2420;51.202;8.698;2024-03-22T13:04:27;14.20;1.00
4813;DHT22;2420;51.202;8.698;2024-03-22T13:06:52;14.10;1.00
4813;DHT22;2420;51.202;8.698;2024-03-22T13:09:18;14.10;1.00
4813;DHT22;2420;51.202;8.698;2024-03-22T13:11:47;14.10;1.00
4813;DHT22;2420;51.202;8.698;2024-03-22T13:14:13;14.00;1.00
4813;DHT22;2420;51.202;8.698;2024-03-22T13:16:39;14.00;1.00
4813;DHT22;2420;51.202;8.698;2024-03-22T13:19:05;13.90;1.00
4813;DHT22;2420;51.202;8.698;2024-03-22T13:21:33;13.80;1.00
4813;DHT22;2420;51.202;8.698;2024-03-22T13:23:59;13.70;1.00
4813;DHT22;2420;51.202;8.698;2024-03-22T13:26:24;13.70;1.00
4813;DHT22;2420;51.202;8.698;2024-03-22T13:28:51;13.60;1.00
4813;DHT22;2420;51.202;8.698;2024-03-22T13:31:17;13.60;1.00
4813;DHT22;2420;51.202;8.698;2024-03-22T13:33:42;13.60;1.00
4813;DHT22;2420;51.202;8.698;2024-03-22T13:36:08;13.60;1.00
4813;DHT22;2420;51.202;8.698;2024-03-22T13:38:34;13.60;1.00
4813;DHT22;2420;51.202;8.698;2024-03-22T13:40:59;13.50;1.00
4813;DHT22;2420;51.202;8.698;2024-03-22T13:43:26;13.60;1.00
4813;DHT22;2420;51.202;8.698;2024-03-22T13:45:53;13.70;1.00
4813;DHT22;2420;51.202;8.698;2024-03-22T13:48:23;13.70;1.00
4813;DHT22;2420;51.202;8.698;2024-03-22T13:50:59;13.70;1.00
4813;DHT22;2420;51.202;8.698;2024-03-22T13:53:24;13.70;1.00
4813;DHT22;2420;51.202;8.698;2024-03-22T13:55:50;13.80;1.00
4813;DHT22;2420;51.202;8.698;2024-03-22T13:58:18;13.80;1.00
4813;DHT22;2420;51.202;8.698;2024-03-22T14:00:44;13.90;1.00
4813;DHT22;2420;51.202;8.698;2024-03-22T14:03:09;13.90;1.00
4813;DHT22;2420;51.202;8.698;2024-03-22T14:05:35;14.00;1.00
4813;DHT22;2420;51.202;8.698;2024-03-22T14:08:01;14.00;1.00
4813;DHT22;2420;51.202;8.698;2024-03-22T14:10:26;14.00;1.00
4813;DHT22;2420;51.202;8.698;2024-03-22T14:12:53;13.90;1.00
4813;DHT22;2420;51.202;8.698;2024-03-22T14:15:19;13.80;1.00
4813;DHT22;2420;51.202;8.698;2024-03-22T14:17:45;13.80;1.00
4813;DHT22;2420;51.202;8.698;2024-03-22T14:20:11;13.70;1.00
4813;DHT22;2420;51.202;8.698;2024-03-22T14:22:40;13.70;1.00
4813;DHT22;2420;51.202;8.698;2024-03-22T14:25:06;13.90;1.00
4813;DHT22;2420;51.202;8.698;2024-03-22T14:27:32;13.90;1.00
4813;DHT22;2420;51.202;8.698;2024-03-22T14:29:59;13.80;1.00
4813;DHT22;2420;51.202;8.698;2024-03-22T14:32:24;13.90;1.00
4813;DHT22;2420;51.202;8.698;2024-03-22T14:34:51;13.70;1.00
4813;DHT22;2420;51.202;8.698;2024-03-22T14:37:17;13.60;1.00
4813;DHT22;2420;51.202;8.698;2024-03-22T14:39:43;13.50;1.00
4813;DHT22;2420;51.202;8.698;2024-03-22T14:42:08;13.50;1.00
4813;DHT22;2420;51.202;8.698;2024-03-22T14:44:34;13.60;1.00
4813;DHT22;2420;51.202;8.698;2024-03-22T14:46:59;13.60;1.00
4813;DHT22;2420;51.202;8.698;2024-03-22T14:49:25;13.50;1.00
4813;DHT22;2420;51.202;8.698;2024-03-22T14:51:51;13.60;1.00
4813;DHT22;2420;51.202;8.698;2024-03-22T14:54:17;13.70;1.00
4813;DHT22;2420;51.202;8.698;2024-03-22T14:56:42;13.70;1.00
4813;DHT22;2420;51.202;8.698;2024-03-22T14:59:08;13.70;1.00
4813;DHT22;2420;51.202;8.698;2024-03-22T15:01:34;13.70;1.00
4813;DHT22;2420;51.202;8.698;2024-03-22T15:04:00;13.80;1.00
4813;DHT22;2420;51.202;8.698;2024-03-22T15:06:26;13.90;1.00
4813;DHT22;2420;51.202;8.698;2024-03-22T15:08:54;14.00;1.00
4813;DHT22;2420;51.202;8.698;2024-03-22T15:11:20;13.90;1.00
4813;DHT22;2420;51.202;8.698;2024-03-22T15:13:45;13.90;1.00
4813;DHT22;2420;51.202;8.698;2024-03-22T15:16:11;13.90;1.00
4813;DHT22;2420;51.202;8.698;2024-03-22T15:18:36;13.90;1.00
4813;DHT22;2420;51.202;8.698;2024-03-22T15:21:02;13.90;1.00
4813;DHT22;2420;51.202;8.698;2024-03-22T15:23:29;13.80;1.00
4813;DHT22;2420;51.202;8.698;2024-03-22T15:25:54;13.90;1.00
4813;DHT22;2420;51.202;8.698;2024-03-22T15:28:20;13.90;1.00
4813;DHT22;2420;51.202;8.698;2024-03-22T15:30:45;13.90;1.00
4813;DHT22;2420;51.202;8.698;2024-03-22T15:33:12;13.90;1.00
4813;DHT22;2420;51.202;8.698;2024-03-22T15:35:38;14.00;1.00
4813;DHT22;2420;51.202;8.698;2024-03-22T15:38:05;14.10;1.00
4813;DHT22;2420;51.202;8.698;2024-03-22T15:40:31;14.20;1.00
4813;DHT22;2420;51.202;8.698;2024-03-22T15:43:00;14.20;1.00
4813;DHT22;2420;51.202;8.698;2024-03-22T15:45:25;14.30;1.00
4813;DHT22;2420;51.202;8.698;2024-03-22T15:47:51;14.30;1.00
4813;DHT22;2420;51.202;8.698;2024-03-22T15:50:17;14.20;1.00
4813;DHT22;2420;51.202;8.698;2024-03-22T15:52:44;14.10;1.00
4813;DHT22;2420;51.202;8.698;2024-03-22T15:55:10;14.00;1.00
4813;DHT22;2420;51.202;8.698;2024-03-22T15:57:35;13.90;1.00
4813;DHT22;2420;51.202;8.698;2024-03-22T16:00:01;13.90;1.00
4813;DHT22;2420;51.202;8.698;2024-03-22T16:02:26;13.90;1.00
4813;DHT22;2420;51.202;8.698;2024-03-22T16:04:52;13.80;1.00
4813;DHT22;2420;51.202;8.698;2024-03-22T16:07:17;13.80;1.00
4813;DHT22;2420;51.202;8.698;2024-03-22T16:09:43;13.70;1.00
4813;DHT22;2420;51.202;8.698;2024-03-22T16:12:09;13.70;1.00
4813;DHT22;2420;51.202;8.698;2024-03-22T16:14:35;13.60;1.00
4813;DHT22;2420;51.202;8.698;2024-03-22T16:17:02;13.50;1.00
4813;DHT22;2420;51.202;8.698;2024-03-22T16:19:28;13.50;1.00